createdAt,value
2022-10-03T00:04:38.917Z,1.43
2022-10-03T00:10:33.155Z,1.63
2022-10-03T00:16:14.527Z,1.55
2022-10-03T00:27:35.913Z,1.60
2022-10-03T00:33:21.067Z,1.37
2022-10-03T00:39:09.424Z,1.53
2022-10-03T00:45:27.542Z,1.83
2022-10-03T00:51:21.753Z,1.70
2022-10-03T00:57:07.135Z,1.73
2022-10-03T01:02:55.891Z,1.50
2022-10-03T01:08:55.258Z,1.60
2022-10-03T01:14:34.546Z,1.73
2022-10-03T01:20:29.968Z,2.27
2022-10-03T01:26:12.374Z,2.00
2022-10-03T01:31:42.631Z,1.50
2022-10-03T01:37:11.963Z,1.90
2022-10-03T01:43:12.449Z,1.90
2022-10-03T01:48:45.254Z,1.73
2022-10-03T01:54:55.557Z,1.67
2022-10-03T02:00:30.981Z,1.97
2022-10-03T02:06:24.405Z,1.90
2022-10-03T02:12:15.804Z,1.52
2022-10-03T02:18:04.295Z,1.40
2022-10-03T02:23:47.240Z,1.73
2022-10-03T02:29:44.208Z,1.80
2022-10-03T02:35:37.021Z,1.90
2022-10-03T02:41:52.422Z,2.00
2022-10-03T02:47:40.291Z,2.30
2022-10-03T02:53:27.330Z,1.70
2022-10-03T02:59:03.235Z,1.13
2022-10-03T03:05:18.783Z,1.37
2022-10-03T03:10:51.575Z,1.50
2022-10-03T03:16:53.289Z,1.20
2022-10-03T03:22:36.788Z,1.30
2022-10-03T03:28:16.630Z,1.12
2022-10-03T03:34:03.414Z,1.40
2022-10-03T03:39:47.135Z,1.30
2022-10-03T03:45:46.239Z,1.32
2022-10-03T03:51:19.308Z,1.30
2022-10-03T03:57:24.130Z,1.47
2022-10-03T04:03:06.338Z,0.98
2022-10-03T04:08:59.483Z,1.30
2022-10-03T04:14:55.472Z,1.15
2022-10-03T04:20:46.659Z,1.47
2022-10-03T04:26:15.879Z,1.22
2022-10-03T04:31:59.780Z,1.30
2022-10-03T04:37:48.500Z,1.25
2022-10-03T04:43:44.034Z,1.17
2022-10-03T04:49:20.035Z,1.30
2022-10-03T04:55:11.864Z,1.30
2022-10-03T05:00:57.141Z,1.07
2022-10-03T05:06:41.479Z,1.67
2022-10-03T05:12:21.254Z,0.93
2022-10-03T05:18:06.636Z,1.47
2022-10-03T05:23:53.671Z,1.60
2022-10-03T05:29:43.036Z,1.60
2022-10-03T05:35:45.857Z,1.27
2022-10-03T05:41:32.733Z,1.60
2022-10-03T05:47:40.444Z,1.20
2022-10-03T05:53:42.262Z,1.10
2022-10-03T05:59:31.075Z,1.13
2022-10-03T06:05:39.023Z,1.20
2022-10-03T06:11:29.330Z,1.30
2022-10-03T06:17:14.304Z,1.47
2022-10-03T06:22:50.542Z,1.80
2022-10-03T06:28:47.497Z,1.32
2022-10-03T06:34:26.037Z,0.98
2022-10-03T06:40:25.256Z,1.40
2022-10-03T06:46:08.036Z,1.12
2022-10-03T06:51:54.947Z,1.20
2022-10-03T06:57:49.629Z,1.40
2022-10-03T07:03:25.217Z,1.60
2022-10-03T07:09:44.448Z,1.80
2022-10-03T07:16:25.376Z,1.80
2022-10-03T07:21:47.672Z,2.50
2022-10-03T07:27:50.153Z,2.50
2022-10-03T07:33:36.716Z,2.70
2022-10-03T07:39:35.092Z,3.15
2022-10-03T07:45:45.510Z,3.17
2022-10-03T07:51:15.454Z,3.30
2022-10-03T07:57:01.000Z,3.73
2022-10-03T08:02:52.241Z,3.50
2022-10-03T08:08:49.807Z,3.40
2022-10-03T08:14:40.345Z,3.58
2022-10-03T08:20:40.353Z,3.70
2022-10-03T08:26:35.324Z,3.40
2022-10-03T08:32:33.815Z,3.70
2022-10-03T08:38:32.185Z,3.70
2022-10-03T08:44:08.639Z,3.50
2022-10-03T08:50:10.584Z,3.50
2022-10-03T08:55:47.163Z,3.20
2022-10-03T09:01:29.890Z,3.20
2022-10-03T09:07:22.936Z,2.93
2022-10-03T09:13:16.354Z,2.07
2022-10-03T09:18:46.268Z,1.80
2022-10-03T09:24:37.635Z,2.10
2022-10-03T09:30:37.492Z,2.30
2022-10-03T09:36:38.433Z,2.37
2022-10-03T09:42:09.109Z,2.20
2022-10-03T09:48:09.713Z,2.30
2022-10-03T09:54:11.627Z,2.70
2022-10-03T10:00:02.036Z,2.93
2022-10-03T10:05:48.033Z,3.33
2022-10-03T10:11:38.433Z,3.00
2022-10-03T10:17:30.412Z,3.23
2022-10-03T10:23:38.350Z,3.33
2022-10-03T10:29:30.146Z,3.03
2022-10-03T10:35:29.483Z,3.23
2022-10-03T10:41:38.777Z,2.73
2022-10-03T10:47:29.149Z,2.67
2022-10-03T10:53:16.435Z,2.60
2022-10-03T10:59:14.589Z,2.30
2022-10-03T11:04:50.930Z,2.70
2022-10-03T11:10:26.515Z,3.13
2022-10-03T11:16:07.198Z,2.62
2022-10-03T11:22:09.447Z,2.40
2022-10-03T11:28:18.970Z,2.60
2022-10-03T11:34:21.455Z,2.83
2022-10-03T11:40:00.057Z,2.50
2022-10-03T11:45:38.951Z,2.30
2022-10-03T11:51:11.954Z,4.77
2022-10-03T11:56:50.660Z,2.40
2022-10-03T12:02:45.225Z,2.03
2022-10-03T12:08:58.254Z,1.92
2022-10-03T12:14:45.943Z,1.90
2022-10-03T12:26:14.692Z,1.40
2022-10-03T12:31:47.196Z,1.57
2022-10-03T12:37:28.715Z,1.73
2022-10-03T12:43:11.006Z,1.80
2022-10-03T12:49:28.174Z,1.50
2022-10-03T12:55:03.550Z,1.60
2022-10-03T13:00:32.759Z,1.60
2022-10-03T13:06:14.909Z,1.90
2022-10-03T13:12:08.030Z,1.93
2022-10-03T13:17:40.627Z,2.20
2022-10-03T13:23:30.723Z,2.00
2022-10-03T13:29:23.444Z,2.20
2022-10-03T13:35:25.923Z,3.23
2022-10-03T13:40:53.224Z,2.45
2022-10-03T13:46:21.561Z,2.40
2022-10-03T13:51:53.383Z,2.80
2022-10-03T13:57:23.271Z,2.40
2022-10-03T14:03:14.665Z,2.45
2022-10-03T14:08:47.226Z,2.47
2022-10-03T14:14:41.990Z,2.67
2022-10-03T14:20:37.501Z,2.77
2022-10-03T14:26:10.174Z,2.47
2022-10-03T14:31:57.423Z,3.10
2022-10-03T14:37:48.744Z,3.00
2022-10-03T14:43:49.047Z,3.07
2022-10-03T14:49:32.911Z,3.03
2022-10-03T14:54:48.643Z,3.07
2022-10-03T15:00:13.736Z,3.00
2022-10-03T15:05:49.355Z,4.93
2022-10-03T15:11:37.534Z,3.27
2022-10-03T15:17:03.775Z,2.83
2022-10-03T15:22:47.854Z,3.20
2022-10-03T15:28:29.919Z,3.10
2022-10-03T15:33:55.141Z,3.17
2022-10-03T15:39:37.249Z,3.27
2022-10-03T15:45:05.275Z,3.23
2022-10-03T15:50:45.652Z,2.90
2022-10-03T15:56:19.793Z,2.70
2022-10-03T16:01:50.469Z,2.73
2022-10-03T16:07:51.717Z,2.47
2022-10-03T16:19:36.857Z,2.77
2022-10-03T16:25:16.362Z,2.73
2022-10-03T16:30:52.605Z,2.37
2022-10-03T16:36:19.629Z,2.67
2022-10-03T16:41:49.912Z,2.57
2022-10-03T16:47:15.755Z,2.17
2022-10-03T16:53:00.511Z,2.80
2022-10-03T16:58:27.594Z,2.83
2022-10-03T17:04:08.737Z,3.10
2022-10-03T17:09:53.850Z,3.00
2022-10-03T17:15:23.856Z,2.77
2022-10-03T17:21:00.316Z,2.63
2022-10-03T17:26:32.662Z,2.67
2022-10-03T17:32:07.796Z,2.97
2022-10-03T17:37:38.932Z,2.67
2022-10-03T17:43:14.697Z,3.02
2022-10-03T17:48:41.737Z,2.75
2022-10-03T17:54:08.636Z,3.75
2022-10-03T17:59:42.501Z,3.72
2022-10-03T18:05:19.052Z,3.45
2022-10-03T18:10:50.007Z,4.03
2022-10-03T18:16:29.267Z,4.17
2022-10-03T18:22:04.698Z,3.47
2022-10-03T18:27:53.838Z,3.87
2022-10-03T18:33:23.367Z,4.35
2022-10-03T18:38:51.886Z,8.50
2022-10-03T18:44:17.014Z,7.42
2022-10-03T18:49:44.932Z,7.20
2022-10-03T18:55:18.444Z,6.57
2022-10-03T19:00:55.185Z,5.13
2022-10-03T19:06:22.285Z,5.77
2022-10-03T19:12:00.825Z,4.90
2022-10-03T19:18:21.398Z,4.80
2022-10-03T19:23:47.676Z,4.97
2022-10-03T19:29:15.129Z,5.50
2022-10-03T19:34:57.728Z,4.33
2022-10-03T19:40:40.325Z,5.00
2022-10-03T19:46:13.382Z,4.20
2022-10-03T19:51:38.836Z,4.10
2022-10-03T19:57:01.558Z,3.50
2022-10-03T20:02:31.768Z,3.20
2022-10-03T20:08:07.912Z,3.35
2022-10-03T20:13:30.507Z,3.30
2022-10-03T20:18:55.362Z,2.95
2022-10-03T20:24:37.523Z,3.30
2022-10-03T20:30:40.352Z,3.03
2022-10-03T20:36:34.265Z,2.75
2022-10-03T20:42:15.778Z,2.73
2022-10-03T20:48:07.207Z,2.60
2022-10-03T20:53:38.799Z,2.73
2022-10-03T20:59:04.214Z,2.83
2022-10-03T21:04:41.089Z,2.52
2022-10-03T21:10:22.816Z,2.47
2022-10-03T21:15:56.697Z,3.25
2022-10-03T21:21:37.397Z,3.75
2022-10-03T21:27:21.323Z,3.10
2022-10-03T21:33:07.512Z,2.98
2022-10-03T21:38:42.774Z,2.80
2022-10-03T21:44:24.815Z,2.58
2022-10-03T21:50:15.015Z,2.80
2022-10-03T21:55:52.225Z,2.80
2022-10-03T22:01:40.805Z,3.15
2022-10-03T22:07:35.418Z,3.37
2022-10-03T22:13:14.938Z,3.07
2022-10-03T22:18:42.205Z,2.93
2022-10-03T22:24:09.259Z,3.07
2022-10-03T22:30:04.725Z,2.90
2022-10-03T22:35:37.714Z,3.10
2022-10-03T22:41:00.965Z,3.03
2022-10-03T22:46:28.009Z,2.93
2022-10-03T22:51:51.913Z,3.47
2022-10-03T22:57:17.956Z,3.40
2022-10-03T23:02:51.049Z,3.83
2022-10-03T23:08:30.079Z,3.50
2022-10-03T23:14:01.851Z,2.70
2022-10-03T23:25:26.811Z,3.43
2022-10-03T23:30:58.354Z,3.00
2022-10-03T23:36:28.115Z,2.97
2022-10-03T23:42:03.128Z,3.17
2022-10-03T23:47:29.459Z,2.70
2022-10-03T23:53:06.945Z,2.47
2022-10-03T23:58:44.511Z,1.07
